createdAt,value
2022-10-10T00:01:38.690Z,4.38
2022-10-10T00:04:08.922Z,4.29
2022-10-10T00:06:37.527Z,4.20
2022-10-10T00:09:07.132Z,4.14
2022-10-10T00:11:36.952Z,4.16
2022-10-10T00:14:06.354Z,4.06
2022-10-10T00:16:34.837Z,4.04
2022-10-10T00:19:03.881Z,3.96
2022-10-10T00:21:34.154Z,3.85
2022-10-10T00:24:03.043Z,3.76
2022-10-10T00:26:32.040Z,3.77
2022-10-10T00:29:00.946Z,3.68
2022-10-10T00:31:29.238Z,3.67
2022-10-10T00:33:57.882Z,3.77
2022-10-10T00:36:26.590Z,3.83
2022-10-10T00:38:56.604Z,3.88
2022-10-10T00:41:26.988Z,3.83
2022-10-10T00:44:10.028Z,3.91
2022-10-10T00:46:39.411Z,3.86
2022-10-10T00:49:10.838Z,3.86
2022-10-10T00:51:39.650Z,3.78
2022-10-10T00:54:11.675Z,3.76
2022-10-10T00:56:42.911Z,3.64
2022-10-10T00:59:12.708Z,3.60
2022-10-10T01:01:41.897Z,3.61
2022-10-10T01:04:34.839Z,3.62
2022-10-10T01:07:06.473Z,3.65
2022-10-10T01:09:37.608Z,3.63
2022-10-10T01:12:17.105Z,3.69
2022-10-10T01:14:49.395Z,3.57
2022-10-10T01:17:22.772Z,3.55
2022-10-10T01:20:44.603Z,3.56
2022-10-10T01:23:35.797Z,3.58
2022-10-10T01:26:19.676Z,3.55
2022-10-10T01:28:52.764Z,3.63
2022-10-10T01:31:24.503Z,3.69
2022-10-10T01:34:02.226Z,3.69
2022-10-10T01:36:35.632Z,3.64
2022-10-10T01:39:08.687Z,3.61
2022-10-10T01:41:41.079Z,3.61
2022-10-10T01:44:11.316Z,3.54
2022-10-10T01:46:39.788Z,3.46
2022-10-10T01:49:08.470Z,3.45
2022-10-10T01:51:49.776Z,3.50
2022-10-10T01:54:28.370Z,3.49
2022-10-10T01:57:04.941Z,3.47
2022-10-10T01:59:42.123Z,3.45
2022-10-10T02:02:16.141Z,3.42
2022-10-10T02:04:50.315Z,3.43
2022-10-10T02:07:23.461Z,3.38
2022-10-10T02:09:53.765Z,3.28
2022-10-10T02:12:22.247Z,3.08
2022-10-10T02:14:53.439Z,2.98
2022-10-10T02:17:22.632Z,3.06
2022-10-10T02:19:54.336Z,3.08
2022-10-10T02:22:23.849Z,3.04
2022-10-10T02:24:53.779Z,3.06
2022-10-10T02:27:27.017Z,3.01
2022-10-10T02:29:58.094Z,3.00
2022-10-10T02:32:30.064Z,3.00
2022-10-10T02:35:09.438Z,3.03
2022-10-10T02:37:38.920Z,3.04
2022-10-10T02:40:10.338Z,3.03
2022-10-10T02:42:39.875Z,3.03
2022-10-10T02:45:10.942Z,3.02
2022-10-10T02:47:39.646Z,3.03
2022-10-10T02:50:09.214Z,3.07
2022-10-10T02:52:37.500Z,3.05
2022-10-10T02:55:07.272Z,3.07
2022-10-10T02:57:35.952Z,3.10
2022-10-10T03:00:05.125Z,3.15
2022-10-10T03:02:35.193Z,3.25
2022-10-10T03:05:05.723Z,3.24
2022-10-10T03:07:34.474Z,3.20
2022-10-10T03:10:03.193Z,3.22
2022-10-10T03:12:31.877Z,3.20
2022-10-10T03:15:00.491Z,3.16
2022-10-10T03:17:29.109Z,3.11
2022-10-10T03:19:59.168Z,3.11
2022-10-10T03:22:27.518Z,3.15
2022-10-10T03:24:56.187Z,3.12
2022-10-10T03:27:24.931Z,3.10
2022-10-10T03:29:53.581Z,3.12
2022-10-10T03:32:22.363Z,3.16
2022-10-10T03:34:50.688Z,3.14
2022-10-10T03:37:20.900Z,3.10
2022-10-10T03:39:49.455Z,3.09
2022-10-10T03:42:18.159Z,3.00
2022-10-10T03:44:46.887Z,2.98
2022-10-10T03:47:15.697Z,2.99
2022-10-10T03:49:43.956Z,2.96
2022-10-10T03:52:12.785Z,2.91
2022-10-10T03:54:42.866Z,2.93
2022-10-10T03:57:11.491Z,2.92
2022-10-10T03:59:40.173Z,2.89
2022-10-10T04:02:08.811Z,2.86
2022-10-10T04:04:37.237Z,2.81
2022-10-10T04:07:05.878Z,2.82
2022-10-10T04:09:34.572Z,2.79
2022-10-10T04:12:05.379Z,2.80
2022-10-10T04:14:34.133Z,2.79
2022-10-10T04:17:03.511Z,2.76
2022-10-10T04:19:31.816Z,2.75
2022-10-10T04:22:00.424Z,2.78
2022-10-10T04:24:29.243Z,2.76
2022-10-10T04:26:58.223Z,2.68
2022-10-10T04:29:28.728Z,2.59
2022-10-10T04:31:57.161Z,2.58
2022-10-10T04:34:28.454Z,2.46
2022-10-10T04:36:57.255Z,2.46
2022-10-10T04:39:26.234Z,2.44
2022-10-10T04:41:54.937Z,2.44
2022-10-10T04:44:23.935Z,2.47
2022-10-10T04:46:53.940Z,2.43
2022-10-10T04:49:23.293Z,2.32
2022-10-10T04:51:52.028Z,2.15
2022-10-10T04:54:20.742Z,1.99
2022-10-10T04:56:49.557Z,1.99
2022-10-10T04:59:18.356Z,1.89
2022-10-10T05:01:46.697Z,1.87
2022-10-10T05:04:16.947Z,1.87
2022-10-10T05:06:45.926Z,1.77
2022-10-10T05:09:14.704Z,1.84
2022-10-10T05:11:43.470Z,1.69
2022-10-10T05:14:12.148Z,1.69
2022-10-10T05:16:40.481Z,1.77
2022-10-10T05:19:09.281Z,1.84
2022-10-10T05:21:39.490Z,1.86
2022-10-10T05:24:08.256Z,1.85
2022-10-10T05:26:42.234Z,1.91
2022-10-10T05:29:11.837Z,2.05
2022-10-10T05:31:40.183Z,2.17
2022-10-10T05:34:08.810Z,2.26
2022-10-10T05:36:37.632Z,2.38
2022-10-10T05:39:07.691Z,2.46
2022-10-10T05:41:36.709Z,2.49
2022-10-10T05:44:05.489Z,2.59
2022-10-10T05:46:33.854Z,2.55
2022-10-10T05:49:02.759Z,2.55
2022-10-10T05:51:31.570Z,2.72
2022-10-10T05:54:00.319Z,2.79
2022-10-10T05:56:31.739Z,2.92
2022-10-10T05:59:00.466Z,2.96
2022-10-10T06:01:28.908Z,2.97
2022-10-10T06:03:57.687Z,3.09
2022-10-10T06:06:27.407Z,3.18
2022-10-10T06:08:56.345Z,3.22
2022-10-10T06:11:26.123Z,3.35
2022-10-10T06:13:57.190Z,3.40
2022-10-10T06:16:27.079Z,3.70
2022-10-10T06:18:57.009Z,3.70
2022-10-10T06:21:26.214Z,4.09
2022-10-10T06:23:54.975Z,4.48
2022-10-10T06:26:24.019Z,4.95
2022-10-10T06:28:52.474Z,5.93
2022-10-10T06:31:22.773Z,6.07
2022-10-10T06:33:53.328Z,5.59
2022-10-10T06:36:21.766Z,6.02
2022-10-10T06:38:50.602Z,7.10
2022-10-10T06:41:19.248Z,6.79
2022-10-10T06:43:49.209Z,6.37
2022-10-10T06:46:18.020Z,7.04
2022-10-10T06:48:48.118Z,7.85
2022-10-10T06:51:17.814Z,8.68
2022-10-10T06:53:47.025Z,8.40
2022-10-10T06:56:26.368Z,8.33
2022-10-10T06:58:56.353Z,7.69
2022-10-10T07:01:26.422Z,7.35
2022-10-10T07:03:56.451Z,7.75
2022-10-10T07:06:25.351Z,7.81
2022-10-10T07:08:54.068Z,7.72
2022-10-10T07:11:22.859Z,7.87
2022-10-10T07:13:53.759Z,9.09
2022-10-10T07:16:23.269Z,8.67
2022-10-10T07:18:52.090Z,8.85
2022-10-10T07:21:22.128Z,9.50
2022-10-10T07:23:50.812Z,8.29
2022-10-10T07:26:22.415Z,9.09
2022-10-10T07:28:51.100Z,9.50
2022-10-10T07:31:19.733Z,10.50
2022-10-10T07:33:50.972Z,10.33
2022-10-10T07:36:21.555Z,10.21
2022-10-10T07:38:52.171Z,9.84
2022-10-10T07:41:21.793Z,9.96
2022-10-10T07:43:51.325Z,11.82
2022-10-10T07:46:21.321Z,11.18
2022-10-10T07:48:50.201Z,12.02
2022-10-10T07:51:21.179Z,11.18
2022-10-10T07:53:49.900Z,11.01
2022-10-10T07:56:18.660Z,10.53
2022-10-10T07:58:46.966Z,10.92
2022-10-10T08:01:15.646Z,11.05
2022-10-10T08:03:44.339Z,10.99
2022-10-10T08:06:14.376Z,11.90
2022-10-10T08:08:51.215Z,11.46
2022-10-10T08:11:22.431Z,11.60
2022-10-10T08:13:51.320Z,13.03
2022-10-10T08:16:20.516Z,11.71
2022-10-10T08:18:49.350Z,12.93
2022-10-10T08:21:18.814Z,12.19
2022-10-10T08:23:48.985Z,11.20
2022-10-10T08:26:19.981Z,11.45
2022-10-10T08:28:48.915Z,12.70
2022-10-10T08:31:20.393Z,13.94
2022-10-10T08:33:50.260Z,14.10
2022-10-10T08:36:20.761Z,13.93
2022-10-10T08:38:52.739Z,15.49
2022-10-10T08:41:28.549Z,17.62
2022-10-10T08:43:59.183Z,14.45
2022-10-10T08:46:34.899Z,13.54
2022-10-10T08:49:17.253Z,14.74
2022-10-10T08:51:50.952Z,13.29
2022-10-10T08:54:23.419Z,12.47
2022-10-10T08:56:52.217Z,12.52
2022-10-10T08:59:23.097Z,15.61
2022-10-10T09:02:18.213Z,18.16
2022-10-10T09:04:42.537Z,18.52
2022-10-10T09:07:22.578Z,17.49
2022-10-10T09:09:58.521Z,16.14
2022-10-10T09:12:32.883Z,14.76
2022-10-10T09:15:09.966Z,15.06
2022-10-10T09:17:40.941Z,13.47
2022-10-10T09:20:19.762Z,13.74
2022-10-10T09:22:52.987Z,15.22
2022-10-10T09:25:25.681Z,16.94
2022-10-10T09:28:00.410Z,17.05
2022-10-10T09:30:31.377Z,14.13
2022-10-10T09:33:03.226Z,13.33
2022-10-10T09:35:35.978Z,14.35
2022-10-10T09:38:17.927Z,17.16
2022-10-10T09:40:51.309Z,18.32
2022-10-10T09:43:21.801Z,17.91
2022-10-10T09:45:53.597Z,21.38
2022-10-10T09:48:24.191Z,22.18
2022-10-10T09:50:52.904Z,19.51
2022-10-10T09:53:21.657Z,16.88
2022-10-10T09:55:53.752Z,17.43
2022-10-10T09:58:28.153Z,14.90
2022-10-10T10:00:57.537Z,16.78
2022-10-10T10:03:26.601Z,16.62
2022-10-10T10:05:57.423Z,14.80
2022-10-10T10:08:28.475Z,15.78
2022-10-10T10:11:02.002Z,18.26
2022-10-10T10:13:33.156Z,16.70
2022-10-10T10:16:05.071Z,17.00
2022-10-10T10:18:40.283Z,19.17
2022-10-10T10:21:15.629Z,18.81
2022-10-10T10:23:49.247Z,19.34
2022-10-10T10:26:22.736Z,18.03
2022-10-10T10:28:52.657Z,15.99
2022-10-10T10:31:26.812Z,16.12
2022-10-10T10:34:03.645Z,16.37
2022-10-10T10:36:39.291Z,16.37
2022-10-10T10:39:19.313Z,15.66
2022-10-10T10:41:56.096Z,17.13
2022-10-10T10:44:34.996Z,18.56
2022-10-10T10:47:11.276Z,18.25
2022-10-10T10:49:49.706Z,16.56
2022-10-10T10:52:37.231Z,17.37
2022-10-10T10:55:19.397Z,17.70
2022-10-10T10:58:57.956Z,17.14
2022-10-10T11:01:23.568Z,18.14
2022-10-10T11:05:19.086Z,18.81
2022-10-10T11:07:17.812Z,17.39
2022-10-10T11:09:53.965Z,16.92
2022-10-10T11:12:32.758Z,17.33
2022-10-10T11:15:05.253Z,19.17
2022-10-10T11:17:37.966Z,19.97
2022-10-10T11:20:13.699Z,22.13
2022-10-10T11:22:46.297Z,20.80
2022-10-10T11:25:20.459Z,17.98
2022-10-10T11:27:52.542Z,17.33
2022-10-10T11:30:25.049Z,17.17
2022-10-10T11:32:56.650Z,17.68
2022-10-10T11:35:36.408Z,18.59
2022-10-10T11:38:11.886Z,18.73
2022-10-10T11:40:59.146Z,17.73
2022-10-10T11:43:35.073Z,18.12
2022-10-10T11:46:13.047Z,19.64
2022-10-10T11:48:47.132Z,21.73
2022-10-10T11:51:23.045Z,18.86
2022-10-10T11:53:52.548Z,18.71
2022-10-10T11:56:26.896Z,18.50
2022-10-10T11:58:58.845Z,18.46
2022-10-10T12:01:31.053Z,19.09
2022-10-10T12:03:59.727Z,17.49
2022-10-10T12:06:33.535Z,17.89
2022-10-10T12:09:05.244Z,19.04
2022-10-10T12:11:38.004Z,20.86
2022-10-10T12:14:10.180Z,20.25
2022-10-10T12:16:40.062Z,19.85
2022-10-10T12:19:09.059Z,20.62
2022-10-10T12:21:58.052Z,18.63
2022-10-10T12:24:27.727Z,19.10
2022-10-10T12:27:29.585Z,18.53
2022-10-10T12:30:26.027Z,17.22
2022-10-10T12:32:56.607Z,17.08
2022-10-10T12:35:34.334Z,18.19
2022-10-10T12:38:24.253Z,18.40
2022-10-10T12:41:14.400Z,21.09
2022-10-10T12:43:46.257Z,25.15
2022-10-10T12:46:31.814Z,25.98
2022-10-10T12:49:17.998Z,24.48
2022-10-10T12:52:01.613Z,20.72
2022-10-10T12:54:33.332Z,21.63
2022-10-10T12:57:14.964Z,22.60
2022-10-10T12:59:44.129Z,20.67
2022-10-10T13:02:19.604Z,18.80
2022-10-10T13:04:50.428Z,20.57
2022-10-10T13:07:21.043Z,20.71
2022-10-10T13:09:51.212Z,21.84
2022-10-10T13:12:23.276Z,22.19
2022-10-10T13:14:52.110Z,21.22
2022-10-10T13:17:26.059Z,20.70
2022-10-10T13:20:01.396Z,19.29
2022-10-10T13:22:31.623Z,18.53
2022-10-10T13:25:05.193Z,18.75
2022-10-10T13:27:35.460Z,19.54
2022-10-10T13:30:04.034Z,19.57
2022-10-10T13:32:34.245Z,19.24
2022-10-10T13:35:05.848Z,19.99
2022-10-10T13:37:36.068Z,20.28
2022-10-10T13:40:05.297Z,19.61
2022-10-10T13:42:35.925Z,19.55
2022-10-10T13:45:30.922Z,19.79
2022-10-10T13:48:19.206Z,19.88
2022-10-10T13:51:04.617Z,19.70
2022-10-10T13:53:35.786Z,18.58
2022-10-10T13:56:08.109Z,18.78
2022-10-10T13:58:42.525Z,18.43
2022-10-10T14:01:33.422Z,17.68
2022-10-10T14:04:06.781Z,17.62
2022-10-10T14:06:37.305Z,18.77
2022-10-10T14:09:10.962Z,18.30
2022-10-10T14:11:42.204Z,16.64
2022-10-10T14:14:18.671Z,17.59
2022-10-10T14:16:47.152Z,19.13
2022-10-10T14:19:18.543Z,19.41
2022-10-10T14:21:48.680Z,17.58
2022-10-10T14:24:17.156Z,17.32
2022-10-10T14:26:45.978Z,17.59
2022-10-10T14:29:15.874Z,17.71
2022-10-10T14:31:45.547Z,18.56
2022-10-10T14:34:15.248Z,17.63
2022-10-10T14:36:48.853Z,17.79
2022-10-10T14:39:19.084Z,17.54
2022-10-10T14:41:47.885Z,15.77
2022-10-10T14:44:16.781Z,14.99
2022-10-10T14:46:45.299Z,14.62
2022-10-10T14:49:19.757Z,14.31
2022-10-10T14:51:50.054Z,13.93
2022-10-10T14:54:18.782Z,13.83
2022-10-10T14:57:07.644Z,13.62
2022-10-10T14:59:48.477Z,13.50
2022-10-10T15:02:20.654Z,13.52
2022-10-10T15:04:49.968Z,13.51
2022-10-10T15:07:20.845Z,13.38
2022-10-10T15:10:31.624Z,13.37
2022-10-10T15:12:41.593Z,13.20
2022-10-10T15:15:11.992Z,13.15
2022-10-10T15:17:42.245Z,13.10
2022-10-10T15:20:12.823Z,12.98
2022-10-10T15:22:43.023Z,12.93
2022-10-10T15:25:11.730Z,12.78
2022-10-10T15:27:40.615Z,12.85
2022-10-10T15:30:12.314Z,12.74
2022-10-10T15:32:41.701Z,12.61
2022-10-10T15:35:13.931Z,12.51
2022-10-10T15:37:44.251Z,12.42
2022-10-10T15:40:14.453Z,12.38
2022-10-10T15:42:43.295Z,12.25
2022-10-10T15:45:12.207Z,12.21
2022-10-10T15:47:46.441Z,12.18
2022-10-10T15:50:15.703Z,12.04
2022-10-10T15:52:45.902Z,12.01
2022-10-10T15:55:14.828Z,11.97
2022-10-10T15:57:43.601Z,11.86
2022-10-10T16:00:13.441Z,11.77
2022-10-10T16:02:42.166Z,11.67
2022-10-10T16:05:11.438Z,11.58
2022-10-10T16:07:48.022Z,11.48
2022-10-10T16:10:18.463Z,11.34
2022-10-10T16:12:47.157Z,11.24
2022-10-10T16:15:15.968Z,11.19
2022-10-10T16:17:45.232Z,11.14
2022-10-10T16:20:14.013Z,11.03
2022-10-10T16:22:42.400Z,10.94
2022-10-10T16:25:26.810Z,10.87
2022-10-10T16:27:56.930Z,10.89
2022-10-10T16:30:25.700Z,10.76
2022-10-10T16:32:54.396Z,10.71
2022-10-10T16:35:23.202Z,10.74
2022-10-10T16:37:51.512Z,10.74
2022-10-10T16:40:20.343Z,10.71
2022-10-10T16:42:49.014Z,10.67
2022-10-10T16:45:19.318Z,10.68
2022-10-10T16:47:48.019Z,10.63
2022-10-10T16:50:17.016Z,10.54
2022-10-10T16:52:46.005Z,10.45
2022-10-10T16:55:14.792Z,10.46
2022-10-10T16:57:43.488Z,10.43
2022-10-10T17:00:12.799Z,10.38
2022-10-10T17:02:43.295Z,10.33
2022-10-10T17:05:11.876Z,10.31
2022-10-10T17:07:40.220Z,10.27
2022-10-10T17:10:09.953Z,10.27
2022-10-10T17:12:38.771Z,10.33
2022-10-10T17:15:08.810Z,10.21
2022-10-10T17:17:37.982Z,10.19
2022-10-10T17:20:08.912Z,10.19
2022-10-10T17:22:38.155Z,10.15
2022-10-10T17:25:08.023Z,10.18
2022-10-10T17:27:37.730Z,10.11
2022-10-10T17:30:09.850Z,10.08
2022-10-10T17:32:39.054Z,10.02
2022-10-10T17:35:10.031Z,9.92
2022-10-10T17:37:38.704Z,9.82
2022-10-10T17:40:08.429Z,9.82
2022-10-10T17:42:39.767Z,9.75
2022-10-10T17:45:09.851Z,9.71
2022-10-10T17:47:41.252Z,9.68
2022-10-10T17:50:13.569Z,9.68
2022-10-10T17:52:42.305Z,9.67
2022-10-10T17:55:11.121Z,9.70
2022-10-10T17:57:39.952Z,9.62
2022-10-10T18:00:09.925Z,9.61
2022-10-10T18:02:38.637Z,9.56
2022-10-10T18:05:07.778Z,9.50
2022-10-10T18:07:37.688Z,9.47
2022-10-10T18:10:07.081Z,9.44
2022-10-10T18:12:35.810Z,9.41
2022-10-10T18:15:05.395Z,9.29
2022-10-10T18:17:34.228Z,9.27
2022-10-10T18:20:03.174Z,9.23
2022-10-10T18:22:31.539Z,9.24
2022-10-10T18:25:01.707Z,9.17
2022-10-10T18:27:30.362Z,9.05
2022-10-10T18:29:59.167Z,9.03
2022-10-10T18:32:27.909Z,9.01
2022-10-10T18:34:56.766Z,8.97
2022-10-10T18:37:25.479Z,8.91
2022-10-10T18:39:54.151Z,8.90
2022-10-10T18:42:24.230Z,8.79
2022-10-10T18:44:52.902Z,8.72
2022-10-10T18:47:21.749Z,8.70
2022-10-10T18:49:50.065Z,8.73
2022-10-10T18:52:18.749Z,8.69
2022-10-10T18:54:47.862Z,8.69
2022-10-10T18:57:16.695Z,8.61
2022-10-10T18:59:46.816Z,8.62
2022-10-10T19:02:15.436Z,8.62
2022-10-10T19:04:45.108Z,8.61
2022-10-10T19:07:13.865Z,8.52
2022-10-10T19:09:42.619Z,8.54
2022-10-10T19:12:11.312Z,8.49
2022-10-10T19:14:40.229Z,8.44
2022-10-10T19:17:10.819Z,8.46
2022-10-10T19:19:39.435Z,8.37
2022-10-10T19:22:08.180Z,8.43
2022-10-10T19:24:36.865Z,8.39
2022-10-10T19:27:05.666Z,8.35
2022-10-10T19:29:34.688Z,8.39
2022-10-10T19:32:03.381Z,8.39
2022-10-10T19:34:33.354Z,8.35
2022-10-10T19:37:02.004Z,8.33
2022-10-10T19:39:30.833Z,8.27
2022-10-10T19:41:59.614Z,8.29
2022-10-10T19:44:28.346Z,8.32
2022-10-10T19:46:57.087Z,8.32
2022-10-10T19:49:25.403Z,8.30
2022-10-10T19:51:55.630Z,8.27
2022-10-10T19:54:24.304Z,8.23
2022-10-10T19:56:53.016Z,8.16
2022-10-10T19:59:21.821Z,8.18
2022-10-10T20:01:50.317Z,8.14
2022-10-10T20:04:19.109Z,8.18
2022-10-10T20:06:48.574Z,8.12
2022-10-10T20:09:18.782Z,8.11
2022-10-10T20:11:47.626Z,8.06
2022-10-10T20:14:16.311Z,8.04
2022-10-10T20:16:44.790Z,8.04
2022-10-10T20:19:13.684Z,7.97
2022-10-10T20:21:42.957Z,7.97
2022-10-10T20:24:11.942Z,7.88
2022-10-10T20:26:42.099Z,7.92
2022-10-10T20:29:11.049Z,7.95
2022-10-10T20:31:39.486Z,7.91
2022-10-10T20:34:08.527Z,7.87
2022-10-10T20:36:39.256Z,7.85
2022-10-10T20:39:09.872Z,7.83
2022-10-10T20:41:39.090Z,7.80
2022-10-10T20:44:12.486Z,7.83
2022-10-10T20:46:42.193Z,7.85
2022-10-10T20:49:14.616Z,7.77
2022-10-10T20:51:48.384Z,7.81
2022-10-10T20:54:18.234Z,7.79
2022-10-10T20:56:46.902Z,7.74
2022-10-10T20:59:18.873Z,7.70
2022-10-10T21:01:47.470Z,7.69
2022-10-10T21:04:16.245Z,7.70
2022-10-10T21:06:45.077Z,7.68
2022-10-10T21:09:15.686Z,7.68
2022-10-10T21:11:48.658Z,7.69
2022-10-10T21:14:20.951Z,7.62
2022-10-10T21:16:50.832Z,7.66
2022-10-10T21:19:19.961Z,7.62
2022-10-10T21:21:48.858Z,7.60
2022-10-10T21:24:17.742Z,7.67
2022-10-10T21:26:49.179Z,7.64
2022-10-10T21:29:18.224Z,7.69
2022-10-10T21:31:47.918Z,7.71
2022-10-10T21:34:18.955Z,7.60
2022-10-10T21:36:48.396Z,7.58
2022-10-10T21:39:17.134Z,7.65
2022-10-10T21:41:45.881Z,7.57
2022-10-10T21:44:15.964Z,7.64
2022-10-10T21:46:44.415Z,7.65
2022-10-10T21:49:14.513Z,7.66
2022-10-10T21:51:45.720Z,7.71
2022-10-10T21:54:14.718Z,7.65
2022-10-10T21:56:43.643Z,7.69
2022-10-10T21:59:12.761Z,7.76
2022-10-10T22:01:41.116Z,7.76
2022-10-10T22:04:10.937Z,7.69
2022-10-10T22:06:40.997Z,7.79
2022-10-10T22:09:09.689Z,7.76
2022-10-10T22:11:38.435Z,7.77
2022-10-10T22:14:07.232Z,7.80
2022-10-10T22:16:36.248Z,7.78
2022-10-10T22:19:05.126Z,7.68
2022-10-10T22:21:35.141Z,7.64
2022-10-10T22:24:07.401Z,7.59
2022-10-10T22:26:36.586Z,7.56
2022-10-10T22:29:05.644Z,7.58
2022-10-10T22:31:37.554Z,7.62
2022-10-10T22:34:06.907Z,7.53
2022-10-10T22:36:36.210Z,7.43
2022-10-10T22:39:07.391Z,7.38
2022-10-10T22:41:36.175Z,7.43
2022-10-10T22:44:04.983Z,7.43
2022-10-10T22:46:33.515Z,7.45
2022-10-10T22:49:02.147Z,7.39
2022-10-10T22:51:31.119Z,7.45
2022-10-10T22:53:59.997Z,7.41
2022-10-10T22:56:30.511Z,7.47
2022-10-10T22:58:58.915Z,7.42
2022-10-10T23:01:27.728Z,7.32
2022-10-10T23:03:59.909Z,7.38
2022-10-10T23:06:29.248Z,7.29
2022-10-10T23:08:58.286Z,7.20
2022-10-10T23:11:26.923Z,7.17
2022-10-10T23:13:56.705Z,7.21
2022-10-10T23:16:25.315Z,7.14
2022-10-10T23:18:54.104Z,7.10
2022-10-10T23:21:22.850Z,7.14
2022-10-10T23:23:52.097Z,7.17
2022-10-10T23:26:20.881Z,7.23
2022-10-10T23:28:50.718Z,7.18
2022-10-10T23:31:20.867Z,7.18
2022-10-10T23:33:49.624Z,7.12
2022-10-10T23:36:18.321Z,7.09
2022-10-10T23:38:47.321Z,7.05
2022-10-10T23:41:16.011Z,6.96
2022-10-10T23:43:44.340Z,6.97
2022-10-10T23:46:13.175Z,6.95
2022-10-10T23:48:43.600Z,6.93
2022-10-10T23:51:12.094Z,6.90
2022-10-10T23:53:40.771Z,6.83
2022-10-10T23:56:09.718Z,6.85
2022-10-10T23:58:38.700Z,6.85
